createdAt,value
2022-11-17T00:00:01.360Z,2.10
2022-11-17T00:01:04.962Z,1.70
2022-11-17T00:02:01.450Z,1.90
2022-11-17T00:03:01.326Z,1.50
2022-11-17T00:04:01.324Z,1.07
2022-11-17T00:05:01.396Z,2.00
2022-11-17T00:06:02.657Z,2.00
2022-11-17T00:07:01.264Z,2.50
2022-11-17T00:08:01.351Z,1.90
2022-11-17T00:09:01.484Z,2.00
2022-11-17T00:10:01.539Z,2.93
2022-11-17T00:11:01.845Z,3.33
2022-11-17T00:12:00.988Z,2.07
2022-11-17T00:13:00.985Z,2.87
2022-11-17T00:14:00.979Z,2.23
2022-11-17T00:15:01.319Z,2.00
2022-11-17T00:16:00.983Z,2.67
2022-11-17T00:17:03.659Z,2.77
2022-11-17T00:18:01.608Z,2.73
2022-11-17T00:19:01.333Z,2.90
2022-11-17T00:20:01.030Z,3.00
2022-11-17T00:21:03.085Z,2.43
2022-11-17T00:22:01.010Z,2.80
2022-11-17T00:23:01.013Z,2.13
2022-11-17T00:24:01.644Z,2.90
2022-11-17T00:25:00.995Z,2.63
2022-11-17T00:26:01.308Z,3.27
2022-11-17T00:27:01.362Z,3.73
2022-11-17T00:28:01.321Z,2.37
2022-11-17T00:29:02.952Z,3.27
2022-11-17T00:30:01.423Z,2.33
2022-11-17T00:31:00.991Z,2.90
2022-11-17T00:32:01.370Z,2.97
2022-11-17T00:33:02.425Z,3.43
2022-11-17T00:34:01.299Z,2.60
2022-11-17T00:35:01.461Z,3.10
2022-11-17T00:36:01.000Z,2.47
2022-11-17T00:37:01.898Z,3.20
2022-11-17T00:38:01.322Z,3.20
2022-11-17T00:39:01.521Z,3.77
2022-11-17T00:40:01.744Z,3.10
2022-11-17T00:41:00.981Z,3.00
2022-11-17T00:42:01.336Z,2.37
2022-11-17T00:43:00.986Z,3.50
2022-11-17T00:44:01.403Z,3.20
2022-11-17T00:45:01.005Z,3.30
2022-11-17T00:46:00.992Z,3.33
2022-11-17T00:47:01.091Z,3.00
2022-11-17T00:48:00.999Z,3.20
2022-11-17T00:49:01.327Z,3.27
2022-11-17T00:50:00.993Z,3.13
2022-11-17T00:51:02.951Z,3.77
2022-11-17T00:52:00.990Z,3.20
2022-11-17T00:53:01.372Z,2.93
2022-11-17T00:54:01.994Z,3.80
2022-11-17T00:55:01.458Z,3.37
2022-11-17T00:56:00.982Z,3.07
2022-11-17T00:57:01.384Z,3.47
2022-11-17T00:58:00.979Z,4.07
2022-11-17T00:59:01.756Z,3.97
2022-11-17T01:00:01.014Z,3.27
2022-11-17T01:01:01.727Z,4.00
2022-11-17T01:02:01.638Z,3.87
2022-11-17T01:03:00.985Z,3.27
2022-11-17T01:04:01.706Z,4.00
2022-11-17T01:05:01.440Z,3.73
2022-11-17T01:06:06.658Z,2.80
2022-11-17T01:07:01.388Z,4.00
2022-11-17T01:08:00.997Z,3.87
2022-11-17T01:09:02.685Z,3.27
2022-11-17T01:10:01.329Z,3.07
2022-11-17T01:11:11.049Z,4.00
2022-11-17T01:12:01.352Z,4.00
2022-11-17T01:13:01.945Z,2.90
2022-11-17T01:14:01.631Z,4.00
2022-11-17T01:15:01.341Z,4.10
2022-11-17T01:16:04.448Z,3.77
2022-11-17T01:17:01.337Z,2.37
2022-11-17T01:18:01.313Z,3.00
2022-11-17T01:19:02.687Z,2.90
2022-11-17T01:20:01.047Z,3.70
2022-11-17T01:21:07.056Z,3.30
2022-11-17T01:22:00.998Z,4.00
2022-11-17T01:23:01.029Z,4.13
2022-11-17T01:24:01.801Z,4.00
2022-11-17T01:25:00.978Z,3.80
2022-11-17T01:26:04.484Z,3.77
2022-11-17T01:27:01.003Z,4.53
2022-11-17T01:28:00.998Z,4.83
2022-11-17T01:29:03.025Z,3.83
2022-11-17T01:30:01.402Z,4.93
2022-11-17T01:31:03.512Z,3.77
2022-11-17T01:32:01.332Z,4.63
2022-11-17T01:33:01.332Z,3.70
2022-11-17T01:34:01.443Z,4.00
2022-11-17T01:35:01.728Z,3.20
2022-11-17T01:36:03.132Z,3.40
2022-11-17T01:37:00.995Z,3.67
2022-11-17T01:38:00.985Z,4.20
2022-11-17T01:39:01.328Z,4.20
2022-11-17T01:40:01.343Z,4.00
2022-11-17T01:41:03.917Z,4.60
2022-11-17T01:42:03.754Z,4.47
2022-11-17T01:43:00.980Z,4.37
2022-11-17T01:44:20.398Z,3.63
2022-11-17T01:45:04.481Z,5.00
2022-11-17T01:46:01.688Z,4.33
2022-11-17T01:47:02.554Z,4.00
2022-11-17T01:48:04.653Z,4.60
2022-11-17T01:49:08.972Z,3.27
2022-11-17T01:50:06.365Z,4.40
2022-11-17T01:51:01.618Z,4.40
2022-11-17T01:52:07.065Z,4.00
2022-11-17T01:53:07.549Z,3.60
2022-11-17T01:54:02.182Z,4.67
2022-11-17T01:55:02.642Z,4.00
2022-11-17T01:56:07.305Z,4.00
2022-11-17T01:57:07.391Z,4.10
2022-11-17T01:58:05.596Z,4.37
2022-11-17T01:59:08.226Z,3.73
2022-11-17T02:00:04.733Z,5.00
2022-11-17T02:01:02.041Z,3.93
2022-11-17T02:02:01.838Z,4.63
2022-11-17T02:03:02.198Z,4.33
2022-11-17T02:04:01.332Z,5.00
2022-11-17T02:05:12.447Z,4.13
2022-11-17T02:06:06.337Z,4.10
2022-11-17T02:07:10.116Z,4.43
2022-11-17T02:08:05.116Z,4.00
2022-11-17T02:09:03.107Z,5.00
2022-11-17T02:10:04.595Z,5.33
2022-11-17T02:11:07.782Z,5.97
2022-11-17T02:12:02.377Z,6.57
2022-11-17T02:13:02.183Z,7.00
2022-11-17T02:14:03.065Z,5.47
2022-11-17T02:15:03.629Z,5.53
2022-11-17T02:16:01.983Z,6.73
2022-11-17T02:17:10.174Z,5.90
2022-11-17T02:18:02.524Z,5.60
2022-11-17T02:19:01.719Z,5.60
2022-11-17T02:20:06.570Z,4.90
2022-11-17T02:21:20.415Z,4.37
2022-11-17T02:22:18.585Z,5.27
2022-11-17T02:23:20.402Z,5.33
2022-11-17T02:24:20.404Z,4.60
2022-11-17T02:25:25.704Z,6.00
2022-11-17T02:26:20.409Z,5.77
2022-11-17T02:27:20.397Z,6.00
2022-11-17T02:28:12.205Z,5.53
2022-11-17T02:29:10.423Z,6.00
2022-11-17T02:30:04.439Z,5.83
2022-11-17T02:31:17.294Z,7.70
2022-11-17T02:32:08.357Z,5.77
2022-11-17T02:33:06.103Z,5.73
2022-11-17T02:34:10.142Z,5.43
2022-11-17T02:35:15.656Z,5.37
2022-11-17T02:36:07.148Z,6.30
2022-11-17T02:37:09.459Z,5.37
2022-11-17T02:38:10.869Z,5.63
2022-11-17T02:39:12.673Z,7.03
2022-11-17T02:40:09.820Z,5.80
2022-11-17T02:41:10.610Z,7.97
2022-11-17T02:42:08.447Z,6.10
2022-11-17T02:43:07.421Z,7.07
2022-11-17T02:44:06.601Z,7.87
2022-11-17T02:45:02.772Z,7.83
2022-11-17T02:46:06.012Z,7.43
2022-11-17T02:47:07.784Z,7.80
2022-11-17T02:48:05.178Z,7.53
2022-11-17T02:49:06.367Z,7.00
2022-11-17T02:50:05.684Z,6.67
2022-11-17T02:51:04.220Z,5.90
2022-11-17T02:52:03.946Z,4.87
2022-11-17T02:53:02.311Z,4.83
2022-11-17T02:54:01.677Z,5.10
2022-11-17T02:55:03.426Z,6.00
2022-11-17T02:56:01.556Z,5.70
2022-11-17T02:57:01.439Z,6.73
2022-11-17T02:58:00.983Z,6.77
2022-11-17T02:59:04.081Z,7.00
2022-11-17T03:00:04.598Z,5.53
2022-11-17T03:01:18.926Z,5.53
2022-11-17T03:02:19.329Z,5.23
2022-11-17T03:03:19.716Z,6.43
2022-11-17T03:04:20.400Z,5.93
2022-11-17T03:05:11.912Z,5.80
2022-11-17T03:06:16.009Z,5.40
2022-11-17T03:07:16.240Z,6.13
2022-11-17T03:08:13.172Z,5.43
2022-11-17T03:09:09.419Z,5.37
2022-11-17T03:10:10.225Z,5.00
2022-11-17T03:11:03.744Z,6.30
2022-11-17T03:12:09.536Z,5.40
2022-11-17T03:13:08.811Z,4.20
2022-11-17T03:14:09.219Z,5.77
2022-11-17T03:15:09.836Z,5.60
2022-11-17T03:16:13.078Z,5.80
2022-11-17T03:17:08.672Z,5.33
2022-11-17T03:18:08.223Z,4.53
2022-11-17T03:19:10.045Z,4.67
2022-11-17T03:20:07.728Z,5.00
2022-11-17T03:21:09.761Z,5.07
2022-11-17T03:22:07.507Z,5.37
2022-11-17T03:23:07.908Z,5.93
2022-11-17T03:24:04.804Z,5.00
2022-11-17T03:25:03.767Z,5.47
2022-11-17T03:26:04.768Z,5.17
2022-11-17T03:27:05.230Z,4.80
2022-11-17T03:28:05.955Z,5.13
2022-11-17T03:29:06.783Z,5.63
2022-11-17T03:30:05.483Z,5.57
2022-11-17T03:31:04.302Z,5.20
2022-11-17T03:32:05.721Z,5.17
2022-11-17T03:33:07.519Z,4.63
2022-11-17T03:34:07.957Z,5.53
2022-11-17T03:35:07.268Z,5.90
2022-11-17T03:36:06.998Z,5.47
2022-11-17T03:37:05.254Z,5.23
2022-11-17T03:38:08.385Z,4.23
2022-11-17T03:39:06.233Z,5.37
2022-11-17T03:40:05.572Z,6.07
2022-11-17T03:41:04.921Z,5.77
2022-11-17T03:42:05.224Z,4.43
2022-11-17T03:43:06.570Z,5.00
2022-11-17T03:44:04.375Z,4.80
2022-11-17T03:45:05.837Z,4.27
2022-11-17T03:46:06.496Z,4.23
2022-11-17T03:47:04.889Z,5.13
2022-11-17T03:48:09.781Z,5.13
2022-11-17T03:49:09.473Z,5.37
2022-11-17T03:50:08.259Z,4.90
2022-11-17T03:51:06.486Z,4.17
2022-11-17T03:52:01.106Z,4.57
2022-11-17T03:53:04.056Z,4.67
2022-11-17T03:54:01.606Z,5.17
2022-11-17T03:55:02.288Z,4.50
2022-11-17T03:56:11.038Z,5.20
2022-11-17T03:57:06.694Z,5.00
2022-11-17T03:58:06.768Z,4.70
2022-11-17T03:59:09.195Z,5.57
2022-11-17T04:00:04.213Z,4.93
2022-11-17T04:01:04.958Z,4.57
2022-11-17T04:02:01.458Z,5.13
2022-11-17T04:03:00.953Z,4.97
2022-11-17T04:04:01.476Z,5.00
2022-11-17T04:05:01.229Z,5.83
2022-11-17T04:06:01.410Z,5.10
2022-11-17T04:07:00.969Z,4.97
2022-11-17T04:08:01.250Z,5.33
2022-11-17T04:09:01.269Z,5.00
2022-11-17T04:10:01.917Z,5.20
2022-11-17T04:11:01.221Z,4.53
2022-11-17T04:12:01.235Z,4.97
2022-11-17T04:13:01.217Z,5.00
2022-11-17T04:14:01.244Z,5.43
2022-11-17T04:15:00.929Z,4.27
2022-11-17T04:16:01.242Z,5.63
2022-11-17T04:17:01.230Z,4.87
2022-11-17T04:18:01.550Z,4.97
2022-11-17T04:19:00.932Z,5.00
2022-11-17T04:20:01.217Z,5.03
2022-11-17T04:21:00.964Z,5.97
2022-11-17T04:22:00.936Z,5.30
2022-11-17T04:23:01.733Z,5.50
2022-11-17T04:24:01.374Z,5.70
2022-11-17T04:25:00.926Z,4.67
2022-11-17T04:26:01.272Z,5.60
2022-11-17T04:27:00.960Z,4.87
2022-11-17T04:28:01.224Z,5.10
2022-11-17T04:29:01.031Z,5.97
2022-11-17T04:30:01.232Z,4.50
2022-11-17T04:31:01.273Z,4.90
2022-11-17T04:32:00.999Z,4.77
2022-11-17T04:33:01.240Z,6.27
2022-11-17T04:34:02.923Z,4.27
2022-11-17T04:35:00.912Z,5.73
2022-11-17T04:36:02.080Z,5.00
2022-11-17T04:37:06.935Z,5.30
2022-11-17T04:38:00.918Z,5.27
2022-11-17T04:39:01.379Z,4.80
2022-11-17T04:40:01.288Z,5.53
2022-11-17T04:41:03.448Z,4.83
2022-11-17T04:42:01.054Z,5.93
2022-11-17T04:43:00.918Z,5.80
2022-11-17T04:44:02.270Z,5.80
2022-11-17T04:45:00.935Z,5.17
2022-11-17T04:46:01.229Z,4.97
2022-11-17T04:47:01.307Z,5.43
2022-11-17T04:48:00.911Z,5.30
2022-11-17T04:49:01.972Z,6.00
2022-11-17T04:50:00.924Z,4.90
2022-11-17T04:51:01.224Z,4.90
2022-11-17T04:52:01.547Z,5.30
2022-11-17T04:53:01.136Z,4.77
2022-11-17T04:54:01.895Z,4.50
2022-11-17T04:55:00.925Z,4.53
2022-11-17T04:56:01.447Z,5.43
2022-11-17T04:57:01.235Z,5.00
2022-11-17T04:58:00.928Z,5.87
2022-11-17T04:59:01.260Z,5.50
2022-11-17T05:00:00.930Z,4.97
2022-11-17T05:01:01.767Z,5.47
2022-11-17T05:02:05.587Z,6.00
2022-11-17T05:03:00.909Z,5.00
2022-11-17T05:04:02.919Z,4.07
2022-11-17T05:05:01.256Z,5.50
2022-11-17T05:06:00.917Z,5.83
2022-11-17T05:07:01.650Z,4.97
2022-11-17T05:08:00.912Z,5.07
2022-11-17T05:09:03.879Z,5.57
2022-11-17T05:10:00.926Z,4.70
2022-11-17T05:11:01.057Z,4.37
2022-11-17T05:12:01.228Z,6.03
2022-11-17T05:13:00.918Z,4.53
2022-11-17T05:14:02.178Z,5.60
2022-11-17T05:15:01.294Z,5.10
2022-11-17T05:16:00.933Z,4.80
2022-11-17T05:17:07.407Z,5.00
2022-11-17T05:18:00.925Z,5.20
2022-11-17T05:19:01.300Z,6.07
2022-11-17T05:20:00.935Z,5.00
2022-11-17T05:21:01.169Z,5.77
2022-11-17T05:22:01.691Z,5.63
2022-11-17T05:23:06.343Z,5.00
2022-11-17T05:24:01.323Z,5.47
2022-11-17T05:25:01.239Z,5.10
2022-11-17T05:26:01.139Z,5.13
2022-11-17T05:27:00.925Z,5.13
2022-11-17T05:28:00.914Z,4.67
2022-11-17T05:29:03.576Z,4.90
2022-11-17T05:30:01.876Z,5.40
2022-11-17T05:31:00.916Z,4.03
2022-11-17T05:32:00.944Z,5.57
2022-11-17T05:33:00.945Z,4.97
2022-11-17T05:34:02.631Z,5.37
2022-11-17T05:35:01.167Z,4.90
2022-11-17T05:36:00.959Z,5.70
2022-11-17T05:37:01.467Z,4.90
2022-11-17T05:38:00.929Z,5.03
2022-11-17T05:39:02.013Z,3.70
2022-11-17T05:40:01.223Z,4.13
2022-11-17T05:41:01.508Z,5.03
2022-11-17T05:42:01.259Z,4.77
2022-11-17T05:43:01.217Z,5.10
2022-11-17T05:44:00.987Z,5.27
2022-11-17T05:45:00.924Z,4.53
2022-11-17T05:46:01.256Z,4.87
2022-11-17T05:47:01.222Z,4.67
2022-11-17T05:48:01.174Z,4.27
2022-11-17T05:49:01.664Z,5.00
2022-11-17T05:50:00.961Z,4.50
2022-11-17T05:51:01.621Z,4.87
2022-11-17T05:52:01.283Z,5.10
2022-11-17T05:53:01.295Z,4.67
2022-11-17T05:54:00.953Z,5.73
2022-11-17T05:55:00.926Z,4.67
2022-11-17T05:56:12.900Z,5.23
2022-11-17T05:57:05.364Z,5.67
2022-11-17T05:58:08.098Z,4.30
2022-11-17T05:59:14.855Z,4.47
2022-11-17T06:00:03.048Z,5.13
2022-11-17T06:01:01.997Z,4.77
2022-11-17T06:02:06.723Z,4.63
2022-11-17T06:03:07.296Z,5.50
2022-11-17T06:04:03.900Z,5.00
2022-11-17T06:05:02.291Z,4.00
2022-11-17T06:06:00.925Z,5.00
2022-11-17T06:07:01.760Z,5.53
2022-11-17T06:08:01.260Z,5.20
2022-11-17T06:09:01.406Z,4.33
2022-11-17T06:10:01.540Z,4.33
2022-11-17T06:11:01.255Z,5.07
2022-11-17T06:12:05.936Z,5.83
2022-11-17T06:13:01.222Z,5.53
2022-11-17T06:14:00.913Z,5.27
2022-11-17T06:15:00.959Z,4.60
2022-11-17T06:16:07.002Z,5.83
2022-11-17T06:17:04.341Z,5.40
2022-11-17T06:18:04.975Z,5.47
2022-11-17T06:19:05.571Z,5.30
2022-11-17T06:20:06.819Z,5.17
2022-11-17T06:21:01.710Z,4.80
2022-11-17T06:22:13.161Z,5.20
2022-11-17T06:23:05.215Z,5.47
2022-11-17T06:24:03.413Z,5.37
2022-11-17T06:25:04.700Z,5.50
2022-11-17T06:26:05.094Z,5.10
2022-11-17T06:27:00.936Z,4.57
2022-11-17T06:28:03.578Z,4.53
2022-11-17T06:29:03.402Z,5.90
2022-11-17T06:30:03.588Z,5.00
2022-11-17T06:31:01.582Z,5.53
2022-11-17T06:32:01.618Z,5.90
2022-11-17T06:33:02.145Z,5.67
2022-11-17T06:34:02.237Z,5.63
2022-11-17T06:35:05.404Z,5.43
2022-11-17T06:36:04.843Z,6.13
2022-11-17T06:37:00.927Z,6.67
2022-11-17T06:38:01.213Z,5.50
2022-11-17T06:39:01.265Z,5.43
2022-11-17T06:40:01.289Z,5.03
2022-11-17T06:41:01.282Z,5.00
2022-11-17T06:42:01.213Z,5.93
2022-11-17T06:43:01.289Z,5.77
2022-11-17T06:44:01.327Z,5.87
2022-11-17T06:45:01.226Z,5.67
2022-11-17T06:46:03.169Z,5.77
2022-11-17T06:47:01.217Z,5.80
2022-11-17T06:48:01.316Z,5.33
2022-11-17T06:49:00.979Z,6.87
2022-11-17T06:50:00.931Z,5.10
2022-11-17T06:51:02.933Z,5.57
2022-11-17T06:52:01.226Z,6.30
2022-11-17T06:53:04.055Z,5.33
2022-11-17T06:54:01.762Z,6.53
2022-11-17T06:55:00.985Z,6.10
2022-11-17T06:56:01.383Z,7.10
2022-11-17T06:57:00.931Z,6.57
2022-11-17T06:58:04.000Z,6.00
2022-11-17T06:59:00.926Z,6.27
2022-11-17T07:00:01.549Z,7.00
2022-11-17T07:01:04.951Z,5.33
2022-11-17T07:02:00.913Z,5.50
2022-11-17T07:03:02.929Z,5.43
2022-11-17T07:04:00.963Z,5.03
2022-11-17T07:05:01.500Z,6.60
2022-11-17T07:06:02.144Z,6.87
2022-11-17T07:07:00.945Z,7.00
2022-11-17T07:08:03.112Z,6.43
2022-11-17T07:09:01.247Z,6.17
2022-11-17T07:10:01.239Z,6.77
2022-11-17T07:11:02.531Z,6.77
2022-11-17T07:12:00.918Z,6.90
2022-11-17T07:13:01.367Z,5.70
2022-11-17T07:14:00.929Z,7.53
2022-11-17T07:15:01.290Z,6.60
2022-11-17T07:16:04.108Z,6.30
2022-11-17T07:17:00.919Z,6.97
2022-11-17T07:18:00.923Z,7.00
2022-11-17T07:19:00.932Z,7.37
2022-11-17T07:20:00.925Z,6.87
2022-11-17T07:21:01.999Z,5.60
2022-11-17T07:22:02.472Z,6.07
2022-11-17T07:23:01.226Z,6.33
2022-11-17T07:24:01.002Z,5.40
2022-11-17T07:25:00.935Z,5.67
2022-11-17T07:26:02.023Z,6.07
2022-11-17T07:27:01.182Z,5.83
2022-11-17T07:28:01.404Z,6.60
2022-11-17T07:29:01.227Z,5.77
2022-11-17T07:30:01.281Z,6.63
2022-11-17T07:31:02.405Z,7.50
2022-11-17T07:32:01.019Z,5.43
2022-11-17T07:33:01.661Z,6.00
2022-11-17T07:34:00.921Z,7.07
2022-11-17T07:35:01.501Z,5.77
2022-11-17T07:36:04.033Z,6.80
2022-11-17T07:37:00.916Z,6.13
2022-11-17T07:38:01.207Z,6.00
2022-11-17T07:39:01.262Z,7.00
2022-11-17T07:40:00.925Z,6.47
2022-11-17T07:41:01.587Z,6.50
2022-11-17T07:42:00.919Z,6.33
2022-11-17T07:43:00.957Z,7.27
2022-11-17T07:44:00.941Z,6.97
2022-11-17T07:45:01.079Z,6.57
2022-11-17T07:46:04.274Z,6.47
2022-11-17T07:47:01.547Z,5.60
2022-11-17T07:48:03.088Z,6.67
2022-11-17T07:49:01.040Z,6.13
2022-11-17T07:50:01.255Z,7.07
2022-11-17T07:51:02.160Z,7.83
2022-11-17T07:52:01.259Z,7.93
2022-11-17T07:53:01.227Z,6.73
2022-11-17T07:54:01.015Z,6.70
2022-11-17T07:55:01.230Z,6.60
2022-11-17T07:56:03.527Z,7.13
2022-11-17T07:57:00.926Z,6.97
2022-11-17T07:58:01.502Z,6.90
2022-11-17T07:59:01.244Z,5.63
2022-11-17T08:00:01.294Z,6.43
2022-11-17T08:01:04.645Z,6.87
2022-11-17T08:02:01.286Z,6.07
2022-11-17T08:03:02.466Z,6.33
2022-11-17T08:04:01.264Z,6.90
2022-11-17T08:05:00.935Z,7.57
2022-11-17T08:06:01.579Z,7.03
2022-11-17T08:07:01.054Z,7.13
2022-11-17T08:08:01.263Z,7.90
2022-11-17T08:09:00.958Z,6.10
2022-11-17T08:10:01.040Z,6.90
2022-11-17T08:11:02.086Z,6.70
2022-11-17T08:12:00.916Z,6.83
2022-11-17T08:13:00.936Z,6.60
2022-11-17T08:14:01.269Z,6.53
2022-11-17T08:15:00.921Z,6.97
2022-11-17T08:16:01.938Z,6.93
2022-11-17T08:17:01.210Z,6.80
2022-11-17T08:18:02.965Z,6.10
2022-11-17T08:19:01.227Z,6.27
2022-11-17T08:20:00.938Z,6.10
2022-11-17T08:21:02.410Z,7.00
2022-11-17T08:22:01.142Z,7.03
2022-11-17T08:23:01.230Z,6.00
2022-11-17T08:24:00.932Z,7.10
2022-11-17T08:25:00.913Z,6.90
2022-11-17T08:26:02.392Z,7.60
2022-11-17T08:27:00.920Z,8.50
2022-11-17T08:28:00.919Z,7.80
2022-11-17T08:29:01.247Z,7.20
2022-11-17T08:30:01.243Z,6.50
2022-11-17T08:31:01.789Z,6.30
2022-11-17T08:32:00.919Z,8.00
2022-11-17T08:33:01.704Z,7.60
2022-11-17T08:34:01.242Z,7.07
2022-11-17T08:35:01.445Z,7.63
2022-11-17T08:36:03.224Z,7.37
2022-11-17T08:37:01.224Z,7.23
2022-11-17T08:38:00.936Z,7.30
2022-11-17T08:39:01.354Z,7.87
2022-11-17T08:40:00.934Z,7.50
2022-11-17T08:41:03.041Z,6.37
2022-11-17T08:42:00.916Z,6.83
2022-11-17T08:43:01.755Z,7.67
2022-11-17T08:44:01.300Z,5.27
2022-11-17T08:45:01.222Z,6.87
2022-11-17T08:46:01.701Z,6.67
2022-11-17T08:47:00.982Z,7.10
2022-11-17T08:48:01.020Z,6.90
2022-11-17T08:49:00.927Z,7.53
2022-11-17T08:50:00.937Z,6.43
2022-11-17T08:51:05.063Z,7.60
2022-11-17T08:52:01.248Z,7.63
2022-11-17T08:53:01.246Z,6.60
2022-11-17T08:54:01.236Z,6.40
2022-11-17T08:55:01.588Z,7.43
2022-11-17T08:56:01.296Z,7.77
2022-11-17T08:57:01.298Z,6.80
2022-11-17T08:58:00.906Z,6.43
2022-11-17T08:59:01.632Z,6.97
2022-11-17T09:00:01.525Z,7.03
2022-11-17T09:01:04.876Z,7.77
2022-11-17T09:02:01.217Z,7.53
2022-11-17T09:03:05.008Z,7.50
2022-11-17T09:04:01.222Z,7.30
2022-11-17T09:05:00.960Z,6.43
2022-11-17T09:06:03.560Z,6.53
2022-11-17T09:07:00.977Z,7.53
2022-11-17T09:08:16.306Z,5.50
2022-11-17T09:09:01.133Z,7.70
2022-11-17T09:10:01.830Z,6.00
2022-11-17T09:11:04.083Z,7.80
2022-11-17T09:12:01.450Z,7.60
2022-11-17T09:13:00.966Z,7.10
2022-11-17T09:14:00.959Z,7.97
2022-11-17T09:15:00.931Z,6.17
2022-11-17T09:16:01.792Z,7.17
2022-11-17T09:17:01.515Z,5.63
2022-11-17T09:18:01.267Z,7.00
2022-11-17T09:19:00.966Z,6.07
2022-11-17T09:20:00.984Z,6.33
2022-11-17T09:21:03.487Z,6.87
2022-11-17T09:22:01.314Z,6.80
2022-11-17T09:23:01.278Z,7.33
2022-11-17T09:24:00.948Z,6.00
2022-11-17T09:25:00.927Z,6.43
2022-11-17T09:26:04.996Z,7.20
2022-11-17T09:27:01.023Z,8.03
2022-11-17T09:28:01.194Z,8.00
2022-11-17T09:29:01.308Z,7.77
2022-11-17T09:30:01.257Z,6.63
2022-11-17T09:31:04.981Z,6.47
2022-11-17T09:32:01.793Z,8.07
2022-11-17T09:33:01.052Z,7.27
2022-11-17T09:34:05.377Z,6.67
2022-11-17T09:35:01.263Z,7.87
2022-11-17T09:36:01.495Z,7.17
2022-11-17T09:37:01.251Z,7.40
2022-11-17T09:38:01.241Z,6.80
2022-11-17T09:39:01.401Z,6.43
2022-11-17T09:40:00.930Z,6.27
2022-11-17T09:41:11.433Z,5.87
2022-11-17T09:42:00.937Z,7.03
2022-11-17T09:43:01.155Z,7.37
2022-11-17T09:44:12.396Z,6.73
2022-11-17T09:45:08.070Z,7.23
2022-11-17T09:46:11.341Z,7.13
2022-11-17T09:47:13.394Z,6.27
2022-11-17T09:48:34.064Z,6.83
2022-11-17T09:49:11.720Z,7.43
2022-11-17T09:50:09.482Z,7.97
2022-11-17T09:51:03.553Z,6.83
2022-11-17T09:52:13.188Z,6.70
2022-11-17T09:53:11.865Z,7.20
2022-11-17T09:54:07.123Z,7.17
2022-11-17T09:55:14.142Z,7.17
2022-11-17T09:56:03.647Z,6.80
2022-11-17T09:57:02.561Z,6.87
2022-11-17T09:58:10.734Z,7.00
2022-11-17T09:59:05.171Z,7.30
2022-11-17T10:00:11.343Z,8.07
2022-11-17T10:01:01.710Z,7.57
2022-11-17T10:02:01.044Z,7.00
2022-11-17T10:03:01.264Z,8.07
2022-11-17T10:04:01.256Z,6.80
2022-11-17T10:05:01.498Z,7.87
2022-11-17T10:06:06.163Z,7.70
2022-11-17T10:07:02.864Z,7.10
2022-11-17T10:08:06.240Z,7.73
2022-11-17T10:09:04.963Z,7.23
2022-11-17T10:10:02.901Z,6.63
2022-11-17T10:11:01.781Z,6.73
2022-11-17T10:12:14.348Z,6.90
2022-11-17T10:13:03.600Z,7.53
2022-11-17T10:14:10.457Z,6.93
2022-11-17T10:15:19.330Z,6.73
2022-11-17T10:16:04.368Z,7.97
2022-11-17T10:17:00.952Z,7.00
2022-11-17T10:18:00.958Z,6.67
2022-11-17T10:19:01.764Z,7.10
2022-11-17T10:20:01.223Z,8.20
2022-11-17T10:21:01.756Z,7.20
2022-11-17T10:22:16.277Z,6.60
2022-11-17T10:23:02.876Z,6.80
2022-11-17T10:24:01.225Z,7.97
2022-11-17T10:25:01.241Z,8.40
2022-11-17T10:26:06.187Z,7.00
2022-11-17T10:27:01.587Z,6.53
2022-11-17T10:28:01.867Z,7.37
2022-11-17T10:29:09.035Z,5.27
2022-11-17T10:30:04.251Z,7.37
2022-11-17T10:31:03.163Z,6.63
2022-11-17T10:32:12.621Z,7.90
2022-11-17T10:33:03.872Z,6.87
2022-11-17T10:34:01.387Z,7.30
2022-11-17T10:35:12.857Z,7.70
2022-11-17T10:36:04.972Z,7.93
2022-11-17T10:37:05.285Z,8.87
2022-11-17T10:38:04.003Z,7.07
2022-11-17T10:39:01.379Z,8.00
2022-11-17T10:40:13.490Z,7.77
2022-11-17T10:41:02.234Z,8.33
2022-11-17T10:42:12.300Z,7.13
2022-11-17T10:43:14.748Z,7.67
2022-11-17T10:44:05.335Z,8.43
2022-11-17T10:45:01.999Z,7.57
2022-11-17T10:46:05.468Z,7.57
2022-11-17T10:47:03.201Z,6.70
2022-11-17T10:48:19.156Z,7.37
2022-11-17T10:49:02.383Z,7.73
2022-11-17T10:50:11.714Z,7.10
2022-11-17T10:51:02.889Z,7.83
2022-11-17T10:52:13.511Z,7.40
2022-11-17T10:53:20.398Z,8.10
2022-11-17T10:54:05.229Z,8.90
2022-11-17T10:55:19.755Z,7.17
2022-11-17T10:56:05.614Z,8.03
2022-11-17T10:57:06.214Z,8.07
2022-11-17T10:58:08.663Z,8.07
2022-11-17T10:59:12.495Z,8.00
2022-11-17T11:00:01.373Z,7.87
2022-11-17T11:01:02.917Z,8.13
2022-11-17T11:02:20.406Z,6.97
2022-11-17T11:03:05.337Z,8.50
2022-11-17T11:04:02.208Z,9.50
2022-11-17T11:05:10.432Z,6.70
2022-11-17T11:06:03.997Z,7.07
2022-11-17T11:07:11.578Z,7.57
2022-11-17T11:08:16.873Z,7.20
2022-11-17T11:09:08.893Z,7.67
2022-11-17T11:10:11.977Z,6.43
2022-11-17T11:11:07.163Z,6.13
2022-11-17T11:12:04.318Z,6.50
2022-11-17T11:13:09.630Z,6.87
2022-11-17T11:14:09.920Z,9.20
2022-11-17T11:15:02.724Z,7.70
2022-11-17T11:16:01.249Z,6.13
2022-11-17T11:17:10.344Z,6.73
2022-11-17T11:18:04.914Z,6.40
2022-11-17T11:19:01.323Z,7.20
2022-11-17T11:20:01.317Z,7.17
2022-11-17T11:21:12.757Z,9.77
2022-11-17T11:22:21.608Z,6.07
2022-11-17T11:23:08.295Z,7.87
2022-11-17T11:24:14.808Z,8.07
2022-11-17T11:25:09.634Z,7.60
2022-11-17T11:26:15.971Z,8.20
2022-11-17T11:27:15.085Z,7.90
2022-11-17T11:28:16.855Z,8.67
2022-11-17T11:29:09.365Z,7.33
2022-11-17T11:30:03.692Z,9.40
2022-11-17T11:31:10.632Z,10.10
2022-11-17T11:32:17.931Z,7.57
2022-11-17T11:33:20.392Z,8.80
2022-11-17T11:34:18.771Z,7.60
2022-11-17T11:35:20.407Z,6.87
2022-11-17T11:36:13.489Z,7.27
2022-11-17T11:37:08.386Z,8.87
2022-11-17T11:38:10.588Z,8.07
2022-11-17T11:39:12.524Z,8.87
2022-11-17T11:40:13.149Z,7.83
2022-11-17T11:41:17.313Z,8.80
2022-11-17T11:42:16.826Z,7.27
2022-11-17T11:43:12.821Z,7.80
2022-11-17T11:44:19.220Z,8.40
2022-11-17T11:45:20.417Z,7.77
2022-11-17T11:46:10.822Z,7.13
2022-11-17T11:47:13.120Z,8.80
2022-11-17T11:48:10.985Z,7.20
2022-11-17T11:49:13.052Z,7.77
2022-11-17T11:50:10.180Z,7.50
2022-11-17T11:51:04.421Z,7.17
2022-11-17T11:52:05.481Z,8.57
2022-11-17T11:53:10.400Z,7.90
2022-11-17T11:54:09.541Z,7.00
2022-11-17T11:55:06.528Z,7.00
2022-11-17T11:56:11.332Z,9.00
2022-11-17T11:57:01.434Z,8.07
2022-11-17T11:58:07.889Z,7.60
2022-11-17T11:59:05.538Z,8.53
2022-11-17T12:00:05.138Z,7.70
2022-11-17T12:01:06.109Z,10.33
2022-11-17T12:02:16.673Z,9.83
2022-11-17T12:03:12.443Z,7.47
2022-11-17T12:04:14.264Z,7.13
2022-11-17T12:05:12.507Z,7.00
2022-11-17T12:06:12.621Z,6.83
2022-11-17T12:07:13.472Z,8.00
2022-11-17T12:08:11.130Z,9.47
2022-11-17T12:09:15.946Z,7.73
2022-11-17T12:10:06.105Z,8.33
2022-11-17T12:11:05.750Z,7.43
2022-11-17T12:12:07.788Z,6.90
2022-11-17T12:13:02.637Z,8.00
2022-11-17T12:14:04.142Z,7.77
2022-11-17T12:15:12.191Z,7.90
2022-11-17T12:16:18.800Z,8.20
2022-11-17T12:17:05.348Z,8.00
2022-11-17T12:18:04.870Z,8.03
2022-11-17T12:19:01.474Z,7.00
2022-11-17T12:20:07.583Z,8.00
2022-11-17T12:21:04.592Z,7.53
2022-11-17T12:22:01.267Z,7.87
2022-11-17T12:23:17.267Z,7.27
2022-11-17T12:24:15.135Z,7.93
2022-11-17T12:25:05.123Z,7.33
2022-11-17T12:26:01.849Z,8.47
2022-11-17T12:27:20.401Z,7.37
2022-11-17T12:28:20.395Z,7.17
2022-11-17T12:29:20.404Z,7.90
2022-11-17T12:30:02.864Z,8.60
2022-11-17T12:31:09.453Z,7.67
2022-11-17T12:32:01.827Z,7.97
2022-11-17T12:33:03.060Z,8.00
2022-11-17T12:34:20.399Z,8.00
2022-11-17T12:35:20.398Z,8.07
2022-11-17T12:36:15.765Z,7.40
2022-11-17T12:37:17.196Z,6.90
2022-11-17T12:38:20.402Z,6.67
2022-11-17T12:39:03.212Z,8.00
2022-11-17T12:40:06.343Z,7.33
2022-11-17T12:41:00.934Z,8.27
2022-11-17T12:42:05.880Z,6.53
2022-11-17T12:43:20.389Z,6.93
2022-11-17T12:44:20.410Z,7.80
2022-11-17T12:45:04.583Z,7.43
2022-11-17T12:46:16.475Z,5.83
2022-11-17T12:47:10.813Z,6.30
2022-11-17T12:48:26.739Z,8.17
2022-11-17T12:49:12.502Z,6.90
2022-11-17T12:50:20.412Z,7.77
2022-11-17T12:51:08.981Z,6.43
2022-11-17T12:52:12.268Z,7.00
2022-11-17T12:53:18.845Z,7.67
2022-11-17T12:54:11.954Z,7.00
2022-11-17T12:55:12.392Z,7.00
2022-11-17T12:56:17.192Z,7.13
2022-11-17T12:57:06.731Z,7.60
2022-11-17T12:58:13.339Z,7.33
2022-11-17T12:59:13.946Z,8.07
2022-11-17T13:00:05.197Z,6.93
2022-11-17T13:01:11.760Z,7.20
2022-11-17T13:02:17.747Z,6.00
2022-11-17T13:03:08.118Z,7.13
2022-11-17T13:04:09.527Z,7.97
2022-11-17T13:05:05.924Z,6.43
2022-11-17T13:06:34.479Z,6.43
2022-11-17T13:07:04.017Z,7.20
2022-11-17T13:08:18.847Z,6.63
2022-11-17T13:09:03.410Z,6.77
2022-11-17T13:10:01.363Z,7.17
2022-11-17T13:11:03.879Z,6.67
2022-11-17T13:12:03.040Z,7.10
2022-11-17T13:13:10.898Z,5.83
2022-11-17T13:14:10.524Z,5.63
2022-11-17T13:15:03.441Z,6.97
2022-11-17T13:16:01.701Z,7.97
2022-11-17T13:17:02.123Z,7.50
2022-11-17T13:18:01.795Z,7.10